Mesa Verde, CO (81330)

3:31 PM MST on February 14, 2016 (GMT -0700)
Cortez Municipal | | Change Station
CLOSE
Current Station
Airport
Location: Cortez,
Elevation: 5915 ft
Nearby Weather Stations

Elev 5915 ft 37.31 °N, 108.63 °W | Updated 38 minutes ago

Partly Cloudy
Partly Cloudy
50 °F
Feels Like 50 °F
N
4
Wind Variable Wind from SSE

Today
High -- | Low -- °F
--% Chance of Precip.
Yesterday
High -- | Low -- °F
Precip. -- in
Pressure 30.07 in
Visibility 10.0 miles
Clouds Few 10000 ft
Dew Point 21 °F
Humidity 32%
Rainfall 0.00 in
Snow Depth Not available.
7:04 AM 5:52 PM
Waxing Crescent, 46% visible
METAR KCEZ 142153Z AUTO 15003KT 10SM FEW100 10/M06 A3010 RMK AO2 SLP182 T01001061
Pressure 30.07 in
Visibility 10.0 miles
Clouds Few 10000 ft
Dew Point 21 °F
Humidity 32%
Rainfall 0.00 in
Snow Depth Not available.
7:04 AM 5:52 PM
Waxing Crescent, 46% visible
METAR KCEZ 142153Z AUTO 15003KT 10SM FEW100 10/M06 A3010 RMK AO2 SLP182 T01001061

10-Day Weather Forecast

Almanac

Astronomy

Feb. 14, 2016 Rise Set
Actual Time
Civil Twilight
Nautical Twilight
Astronomical Twilight
Moon
Length of Visible Light
Length of Day
Tomorrow will be .
, % of the Moon is Illuminated

Today's Extremes

State Highs State Lows

Community

WunderPhotos

Upload Photos

1,892,899 photos uploaded!

WunderBlog® & News

Nearby

Air Quality

  Air Quality AQ Index Pollutant
Not available.

Snow Depth

Station Depth Elevation

Earthquake Activity

City Distance Mag. Time & Date
Minimum magnitude displayed is 2.5.

Coastal Water Temperatures

Place Temperature

Stations

Nearby Weather Stations

Station Location Temp. Windchill Dew Point Humidity Wind Precip. Elev Updated Type
                   

Watches & Warnings

There are currently no watches in effect.